Time;durP1;ratioP1;P1;durP2;ratioP2;P2;SDS_P1;SDS_P2;PMS_P1;PMS_P2;Temp;Humidity;BMP_temperature;BMP_pressure;BME280_temperature;BME280_humidity;BME280_pressure;Samples;Min_cycle;Max_cycle;Signal;HPM_P1;HPM_P2
2024/03/16 00:00:07;;;;;;;0.90;0.60;;;12.80;99.90;;;;;;5063570;28;20206;-60
2024/03/16 00:02:34;;;;;;;1.80;0.50;;;12.80;99.90;;;;;;5060711;28;20209;-59
2024/03/16 00:05:01;;;;;;;0.60;0.60;;;12.90;99.90;;;;;;5048809;28;20205;-59
2024/03/16 00:07:28;;;;;;;0.97;0.60;;;12.90;99.90;;;;;;5060594;28;20316;-60
2024/03/16 00:09:55;;;;;;;0.70;0.60;;;12.90;99.90;;;;;;5050122;28;20229;-60
2024/03/16 00:12:22;;;;;;;1.40;0.50;;;13.00;99.90;;;;;;5059791;28;20202;-60
2024/03/16 00:14:49;;;;;;;0.80;0.50;;;13.00;99.90;;;;;;5050284;28;20297;-59
2024/03/16 00:17:17;;;;;;;1.37;0.60;;;13.00;99.90;;;;;;5046857;28;20226;-59
2024/03/16 00:19:46;;;;;;;1.00;0.60;;;13.00;99.90;;;;;;5062194;28;20271;-60
2024/03/16 00:22:12;;;;;;;0.83;0.50;;;13.00;99.90;;;;;;5047525;28;20381;-60
2024/03/16 00:24:39;;;;;;;1.20;0.53;;;13.00;99.90;;;;;;5061672;28;20213;-60
2024/03/16 00:27:07;;;;;;;1.43;0.70;;;13.10;99.90;;;;;;5048200;28;20229;-59
2024/03/16 00:29:34;;;;;;;1.37;0.50;;;13.10;99.90;;;;;;5060747;28;20276;-60
2024/03/16 00:32:01;;;;;;;1.43;0.97;;;13.10;99.90;;;;;;5048937;28;20232;-59
2024/03/16 00:34:28;;;;;;;0.40;0.33;;;13.20;99.90;;;;;;5059844;28;20206;-59
2024/03/16 00:36:55;;;;;;;1.20;0.50;;;13.20;99.90;;;;;;5049696;28;20738;-60
2024/03/16 00:39:23;;;;;;;2.67;0.50;;;13.20;99.90;;;;;;5059321;28;20293;-60
2024/03/16 00:41:50;;;;;;;0.27;0.20;;;13.20;99.90;;;;;;5050080;28;20590;-63
2024/03/16 00:44:18;;;;;;;1.17;0.50;;;13.20;99.90;;;;;;5046516;28;20202;-60
2024/03/16 00:46:45;;;;;;;1.07;0.40;;;13.20;99.90;;;;;;5062073;28;20229;-60
2024/03/16 00:49:12;;;;;;;0.73;0.50;;;13.20;99.90;;;;;;5047431;28;20279;-59
2024/03/16 00:51:40;;;;;;;1.87;0.40;;;13.30;99.90;;;;;;5061403;28;20209;-60
2024/03/16 00:54:07;;;;;;;1.60;0.80;;;13.20;99.90;;;;;;5047924;28;20255;-60
2024/03/16 00:56:34;;;;;;;1.10;0.50;;;13.20;99.90;;;;;;5060987;28;20202;-59
2024/03/16 00:59:01;;;;;;;0.80;0.60;;;13.30;99.90;;;;;;5048957;28;20221;-59
2024/03/16 01:01:33;;;;;;;0.80;0.50;;;13.20;99.90;;;;;;5059654;28;20217;-60
2024/03/16 01:04:00;;;;;;;0.60;0.47;;;13.20;99.90;;;;;;5049162;28;20212;-59
2024/03/16 01:06:27;;;;;;;0.97;0.57;;;13.20;99.90;;;;;;5059305;28;20734;-60
2024/03/16 01:08:54;;;;;;;0.83;0.50;;;13.10;99.90;;;;;;5049803;28;20221;-59
2024/03/16 01:11:22;;;;;;;1.17;0.50;;;13.10;99.90;;;;;;5058675;28;20671;-60
2024/03/16 01:13:49;;;;;;;0.33;0.30;;;13.10;99.90;;;;;;5049847;28;20296;-60
2024/03/16 01:16:15;;;;;;;0.20;0.20;;;13.10;99.90;;;;;;5046796;28;20206;-60
2024/03/16 01:18:42;;;;;;;0.57;0.20;;;13.10;99.90;;;;;;5062718;28;20248;-59
2024/03/16 01:21:09;;;;;;;0.40;0.20;;;13.10;99.90;;;;;;5051561;28;20292;-59
2024/03/16 01:23:37;;;;;;;0.43;0.40;;;13.10;99.90;;;;;;5064517;28;20296;-60
2024/03/16 01:26:05;;;;;;;0.50;0.30;;;12.90;99.90;;;;;;5051750;28;20293;-60
2024/03/16 01:28:32;;;;;;;0.50;0.27;;;12.80;99.90;;;;;;5063102;28;20228;-60
2024/03/16 01:30:59;;;;;;;0.50;0.23;;;12.80;99.90;;;;;;5052588;28;20232;-60
2024/03/16 01:33:26;;;;;;;1.10;0.20;;;12.70;99.90;;;;;;5062437;28;20267;-60
2024/03/16 01:35:53;;;;;;;2.23;0.53;;;12.60;99.90;;;;;;5053127;28;20695;-60
2024/03/16 01:38:20;;;;;;;0.30;0.20;;;12.60;99.90;;;;;;5044926;28;20707;-60
2024/03/16 01:40:47;;;;;;;2.33;0.70;;;12.70;99.90;;;;;;5053051;28;20213;-59
2024/03/16 01:43:13;;;;;;;0.87;0.20;;;12.60;99.90;;;;;;5050450;28;20210;-60
2024/03/16 01:45:41;;;;;;;0.57;0.40;;;12.60;99.90;;;;;;5064122;28;20300;-60
2024/03/16 01:48:09;;;;;;;1.10;0.40;;;12.60;99.90;;;;;;5050969;28;20264;-60
2024/03/16 01:50:36;;;;;;;0.43;0.40;;;12.60;99.90;;;;;;5063289;28;20275;-60
2024/03/16 01:53:04;;;;;;;0.50;0.30;;;12.60;99.90;;;;;;5051693;28;20322;-59
2024/03/16 01:55:31;;;;;;;1.17;0.30;;;12.60;99.90;;;;;;5057458;28;20206;-60
2024/03/16 01:57:58;;;;;;;0.20;0.20;;;12.60;99.90;;;;;;5065629;28;20233;-60
2024/03/16 02:00:26;;;;;;;3.00;0.30;;;12.50;99.90;;;;;;5061848;28;20202;-60
2024/03/16 02:02:54;;;;;;;0.47;0.30;;;12.50;99.90;;;;;;5052742;28;20213;-60
2024/03/16 02:05:20;;;;;;;0.47;0.23;;;12.50;99.90;;;;;;5044339;28;20214;-60
2024/03/16 02:07:48;;;;;;;1.90;0.37;;;12.50;99.90;;;;;;5052478;28;20226;-59
2024/03/16 02:10:15;;;;;;;0.30;0.30;;;12.50;99.90;;;;;;5049536;28;20230;-60
2024/03/16 02:12:42;;;;;;;0.93;0.37;;;12.50;99.90;;;;;;5063924;28;20271;-60
2024/03/16 02:15:09;;;;;;;2.27;1.57;;;12.50;99.90;;;;;;5050486;28;20289;-60
2024/03/16 02:17:36;;;;;;;0.43;0.37;;;12.60;99.90;;;;;;5062669;28;20321;-60
2024/03/16 02:20:04;;;;;;;1.77;0.40;;;12.60;99.90;;;;;;5051326;28;20212;-60
2024/03/16 02:22:31;;;;;;;1.70;0.40;;;12.60;99.90;;;;;;5056952;28;20297;-58
2024/03/16 02:24:58;;;;;;;0.27;0.20;;;12.60;99.90;;;;;;5065277;28;20216;-57
2024/03/16 02:27:25;;;;;;;1.40;0.40;;;12.60;99.90;;;;;;5060952;28;20691;-58
2024/03/16 02:29:52;;;;;;;1.60;0.30;;;12.50;99.90;;;;;;5051501;28;20615;-59
2024/03/16 02:32:18;;;;;;;1.93;0.40;;;12.40;99.90;;;;;;5048762;28;20210;-60
2024/03/16 02:34:45;;;;;;;0.83;0.40;;;12.40;99.90;;;;;;5063669;28;20205;-60
2024/03/16 02:37:12;;;;;;;0.97;0.33;;;12.40;99.90;;;;;;5049474;28;20229;-60
2024/03/16 02:39:39;;;;;;;0.90;0.30;;;12.40;99.90;;;;;;5062876;28;20201;-61
2024/03/16 02:42:06;;;;;;;2.00;1.33;;;12.40;99.90;;;;;;5050533;28;20357;-60
2024/03/16 02:44:33;;;;;;;0.60;0.37;;;12.40;99.90;;;;;;5061770;28;20216;-60
2024/03/16 02:47:00;;;;;;;1.00;0.40;;;12.40;99.90;;;;;;5051245;28;20255;-57
2024/03/16 02:49:27;;;;;;;1.13;0.50;;;12.40;99.90;;;;;;5060885;28;20233;-58
2024/03/16 02:51:54;;;;;;;1.27;0.47;;;12.40;99.90;;;;;;5051680;28;20210;-59
2024/03/16 02:54:21;;;;;;;0.80;0.30;;;12.30;99.90;;;;;;5048149;28;20206;-60
2024/03/16 02:56:48;;;;;;;0.20;0.20;;;12.20;99.90;;;;;;5063400;28;20737;-60
2024/03/16 02:59:14;;;;;;;1.17;0.43;;;12.00;99.90;;;;;;5049154;28;20209;-60
2024/03/16 03:01:41;;;;;;;0.93;0.40;;;12.00;99.90;;;;;;5062446;28;20627;-61
2024/03/16 03:04:08;;;;;;;2.90;0.50;;;11.90;99.90;;;;;;5049519;28;20205;-60
2024/03/16 03:06:34;;;;;;;0.73;0.30;;;11.80;99.90;;;;;;5061649;28;20635;-61
2024/03/16 03:09:03;;;;;;;0.57;0.30;;;11.80;99.90;;;;;;5050852;28;20209;-60
2024/03/16 03:11:30;;;;;;;1.20;0.20;;;11.70;99.90;;;;;;5060401;28;20299;-61
2024/03/16 03:13:56;;;;;;;1.33;0.40;;;11.60;99.90;;;;;;5051329;28;20637;-60
2024/03/16 03:16:23;;;;;;;2.13;0.53;;;11.60;99.90;;;;;;5034338;28;20675;-60
2024/03/16 03:18:50;;;;;;;0.90;0.40;;;11.70;99.90;;;;;;5059347;28;20213;-60
2024/03/16 03:21:17;;;;;;;2.27;0.60;;;11.70;99.90;;;;;;5059455;28;20679;-61
2024/03/16 03:23:44;;;;;;;2.23;0.60;;;11.70;99.90;;;;;;5051259;28;20259;-60
2024/03/16 03:26:11;;;;;;;0.63;0.30;;;11.70;99.90;;;;;;5049103;28;20213;-60
2024/03/16 03:28:38;;;;;;;1.40;0.40;;;11.80;99.90;;;;;;5061389;28;20795;-60
2024/03/16 03:31:06;;;;;;;1.63;0.53;;;11.80;99.90;;;;;;5049671;28;20780;-60
2024/03/16 03:33:33;;;;;;;1.37;0.40;;;12.00;99.90;;;;;;5060472;28;20615;-60
2024/03/16 03:36:02;;;;;;;1.63;0.47;;;12.10;99.90;;;;;;5050295;28;20259;-60
2024/03/16 03:38:29;;;;;;;0.97;0.30;;;12.10;99.90;;;;;;5059882;28;20589;-59
2024/03/16 03:40:56;;;;;;;1.03;0.43;;;12.10;99.90;;;;;;5050826;28;20275;-60
2024/03/16 03:43:24;;;;;;;0.97;0.30;;;12.20;99.90;;;;;;5039018;28;20209;-60
2024/03/16 03:45:52;;;;;;;1.60;0.47;;;12.20;99.90;;;;;;5030636;28;20751;-61
2024/03/16 03:51:08;;;;;;;1.10;0.33;;;12.40;99.90;;;;;;5040527;28;20229;-60
2024/03/16 03:53:35;;;;;;;1.63;0.50;;;12.50;99.90;;;;;;5050573;28;20730;-60
2024/03/16 03:56:02;;;;;;;1.47;0.60;;;12.60;99.90;;;;;;5049718;28;20632;-61
2024/03/16 03:58:29;;;;;;;1.63;0.50;;;12.60;99.90;;;;;;5073759;22;20230;-59
2024/03/16 04:00:56;;;;;;;1.03;0.60;;;12.70;99.90;;;;;;5059013;28;20201;-56
2024/03/16 04:03:23;;;;;;;0.73;0.50;;;12.70;99.90;;;;;;5055842;28;20199;-56
2024/03/16 04:05:53;;;;;;;0.60;0.50;;;12.70;99.90;;;;;;5026164;28;20210;-56
2024/03/16 04:08:20;;;;;;;1.80;0.60;;;12.80;99.90;;;;;;5025939;28;20650;-57
2024/03/16 04:10:47;;;;;;;2.70;0.40;;;12.80;99.90;;;;;;5033989;28;20274;-57
2024/03/16 04:13:14;;;;;;;1.53;0.50;;;12.80;99.90;;;;;;5031731;28;20581;-56
2024/03/16 04:15:41;;;;;;;1.60;0.43;;;12.80;99.90;;;;;;5024585;28;20217;-56
2024/03/16 04:18:08;;;;;;;1.30;0.40;;;12.70;99.90;;;;;;5023816;28;20226;-54
2024/03/16 04:20:34;;;;;;;2.10;0.50;;;12.80;99.90;;;;;;5034017;28;20206;-56
2024/03/16 04:23:01;;;;;;;0.97;0.40;;;12.70;99.90;;;;;;5033564;28;20205;-56
2024/03/16 04:25:28;;;;;;;2.03;0.50;;;12.70;99.90;;;;;;5022560;28;20613;-55
2024/03/16 04:27:55;;;;;;;1.00;0.30;;;12.70;99.90;;;;;;5022321;28;20222;-57
2024/03/16 04:30:22;;;;;;;0.90;0.50;;;12.70;99.90;;;;;;5025354;28;20217;-57
2024/03/16 04:32:48;;;;;;;2.63;0.97;;;12.70;99.90;;;;;;5033965;28;20205;-57
2024/03/16 04:35:15;;;;;;;1.47;0.60;;;12.70;99.90;;;;;;5031263;28;20206;-56
2024/03/16 04:37:42;;;;;;;1.87;0.60;;;12.70;99.90;;;;;;5024580;28;20226;-57
2024/03/16 04:40:10;;;;;;;2.90;0.80;;;12.60;99.90;;;;;;5023352;28;20202;-57
2024/03/16 04:42:37;;;;;;;0.77;0.70;;;12.70;99.90;;;;;;5034037;28;20248;-56
2024/03/16 04:45:04;;;;;;;2.27;0.60;;;12.70;99.90;;;;;;5032734;28;20675;-57
2024/03/16 04:47:31;;;;;;;3.30;0.90;;;12.70;99.90;;;;;;5023049;28;20230;-56
2024/03/16 04:49:58;;;;;;;2.03;0.60;;;12.70;99.90;;;;;;5021966;28;20591;-57
2024/03/16 04:52:25;;;;;;;2.47;0.67;;;12.80;99.90;;;;;;5022179;28;20202;-54
2024/03/16 04:54:52;;;;;;;1.43;0.60;;;12.80;99.90;;;;;;5024811;28;20233;-56
2024/03/16 04:57:19;;;;;;;1.40;0.60;;;12.80;99.90;;;;;;5028404;28;20325;-55
2024/03/16 04:59:46;;;;;;;1.80;0.90;;;12.70;99.90;;;;;;5037470;28;20296;-55
2024/03/16 05:02:12;;;;;;;2.77;0.93;;;12.70;99.90;;;;;;5035564;28;20216;-56
2024/03/16 05:04:39;;;;;;;1.77;1.07;;;12.60;99.90;;;;;;5027585;28;20217;-57
2024/03/16 05:07:06;;;;;;;1.10;0.63;;;12.60;99.90;;;;;;5026281;28;20226;-57
2024/03/16 05:09:33;;;;;;;3.60;0.90;;;12.60;99.90;;;;;;5037550;28;20639;-56
2024/03/16 05:12:00;;;;;;;2.40;1.10;;;12.60;99.90;;;;;;5037234;28;20225;-56
2024/03/16 05:14:28;;;;;;;2.20;0.70;;;12.60;99.90;;;;;;5029181;28;20208;-55
2024/03/16 05:16:55;;;;;;;2.40;0.80;;;12.60;99.90;;;;;;5037376;28;20296;-57
2024/03/16 05:19:21;;;;;;;2.23;0.70;;;12.60;99.90;;;;;;5034295;28;20587;-55
2024/03/16 05:21:48;;;;;;;1.37;0.83;;;12.50;99.90;;;;;;5028807;28;20293;-56
2024/03/16 05:24:15;;;;;;;2.97;0.87;;;12.50;99.90;;;;;;5027188;28;20206;-56
2024/03/16 05:26:42;;;;;;;2.67;1.63;;;12.40;99.90;;;;;;5037213;28;20646;-57
2024/03/16 05:29:09;;;;;;;1.20;0.50;;;12.40;99.90;;;;;;5035850;28;20206;-57
2024/03/16 05:31:37;;;;;;;1.97;0.60;;;12.40;99.90;;;;;;5027228;28;20314;-57
2024/03/16 05:34:05;;;;;;;2.07;0.90;;;12.40;99.90;;;;;;5025973;28;20221;-56
2024/03/16 05:36:32;;;;;;;1.63;0.77;;;12.40;99.90;;;;;;5036631;28;20213;-55
2024/03/16 05:38:59;;;;;;;1.10;0.60;;;12.40;99.90;;;;;;5037259;28;20225;-57
2024/03/16 05:41:26;;;;;;;1.10;0.60;;;12.40;99.90;;;;;;5033431;28;20206;-56
2024/03/16 05:43:53;;;;;;;2.47;0.80;;;12.40;99.90;;;;;;5028715;28;20221;-57
2024/03/16 05:46:20;;;;;;;1.70;0.70;;;12.40;99.90;;;;;;5027217;28;20205;-56
2024/03/16 05:48:47;;;;;;;3.37;0.80;;;12.40;99.90;;;;;;5036626;28;20507;-57
2024/03/16 05:51:14;;;;;;;1.60;0.53;;;12.40;99.90;;;;;;5034667;28;20275;-57
2024/03/16 05:53:41;;;;;;;0.87;0.47;;;12.50;99.90;;;;;;5027028;28;20210;-56
2024/03/16 05:56:08;;;;;;;1.47;0.63;;;12.50;99.90;;;;;;5025529;28;20217;-57
2024/03/16 05:58:35;;;;;;;1.63;0.77;;;12.50;99.90;;;;;;5020372;28;20233;-57
2024/03/16 06:01:04;;;;;;;1.10;0.50;;;12.50;99.90;;;;;;5036455;28;20644;-55
2024/03/16 06:03:31;;;;;;;1.60;0.73;;;12.60;99.90;;;;;;5025206;28;20672;-57
2024/03/16 06:05:58;;;;;;;1.17;0.60;;;12.50;99.90;;;;;;5024650;28;20416;-56
2024/03/16 06:08:25;;;;;;;0.60;0.47;;;12.50;99.90;;;;;;5027900;28;20271;-56
2024/03/16 06:10:52;;;;;;;1.90;1.07;;;12.60;99.90;;;;;;5036270;28;20217;-56
2024/03/16 06:13:19;;;;;;;1.17;0.80;;;12.70;99.90;;;;;;5033628;28;20675;-57
2024/03/16 06:15:46;;;;;;;2.53;1.20;;;12.90;99.90;;;;;;5026720;28;20312;-57
2024/03/16 06:18:13;;;;;;;0.83;0.40;;;13.00;99.90;;;;;;5025896;28;20226;-57
2024/03/16 06:20:40;;;;;;;1.20;0.70;;;13.20;99.90;;;;;;5036142;28;20676;-57
2024/03/16 06:23:08;;;;;;;2.77;1.07;;;13.30;99.90;;;;;;5035346;28;20205;-56
2024/03/16 06:25:46;;;;;;;2.03;0.90;;;13.30;99.90;;;;;;5024939;28;20206;-57
2024/03/16 06:28:16;;;;;;;1.80;0.90;;;13.40;99.90;;;;;;5026952;28;20661;-57
2024/03/16 06:30:48;;;;;;;1.70;0.97;;;13.40;99.90;;;;;;5036083;28;20229;-56
2024/03/16 06:33:26;;;;;;;0.93;0.50;;;13.40;99.90;;;;;;5034683;28;20224;-55
2024/03/16 06:35:53;;;;;;;1.03;0.60;;;13.30;99.90;;;;;;5027563;28;20293;-56
2024/03/16 06:38:21;;;;;;;3.50;0.87;;;13.30;99.90;;;;;;5026311;28;20222;-57
2024/03/16 06:40:48;;;;;;;2.13;0.57;;;13.30;99.90;;;;;;5035639;28;20255;-57
2024/03/16 06:43:15;;;;;;;2.10;1.20;;;13.30;99.90;;;;;;5033706;28;20213;-56
2024/03/16 06:45:42;;;;;;;1.07;0.80;;;13.30;99.90;;;;;;5025549;28;20213;-57
2024/03/16 06:48:09;;;;;;;3.17;0.87;;;13.40;99.90;;;;;;5024658;28;20230;-57
2024/03/16 06:50:36;;;;;;;1.77;0.70;;;13.40;99.90;;;;;;5035386;28;20237;-57
2024/03/16 06:53:03;;;;;;;2.93;1.10;;;13.40;99.90;;;;;;5035272;28;20543;-55
2024/03/16 06:55:30;;;;;;;3.57;1.80;;;13.50;99.90;;;;;;5023351;28;20214;-57
2024/03/16 06:57:57;;;;;;;2.80;1.00;;;13.50;99.90;;;;;;5027385;28;20460;-57
2024/03/16 07:00:24;;;;;;;1.57;0.80;;;13.60;99.90;;;;;;5026435;28;20267;-57
2024/03/16 07:02:51;;;;;;;1.27;0.60;;;13.60;99.90;;;;;;5035286;28;20240;-57
2024/03/16 07:05:18;;;;;;;1.30;0.70;;;13.50;99.90;;;;;;5032989;28;20213;-56
2024/03/16 07:07:45;;;;;;;2.30;0.77;;;13.50;99.90;;;;;;5025558;28;20276;-56
2024/03/16 07:10:11;;;;;;;1.47;0.50;;;13.60;99.90;;;;;;5024155;28;20218;-57
2024/03/16 07:12:38;;;;;;;1.47;0.60;;;13.80;99.90;;;;;;5035008;28;20272;-57
2024/03/16 07:15:07;;;;;;;2.03;0.80;;;13.90;99.90;;;;;;5034344;28;20243;-56
2024/03/16 07:17:34;;;;;;;1.67;0.90;;;14.10;99.90;;;;;;5023533;28;20222;-57
2024/03/16 07:20:01;;;;;;;1.57;0.60;;;14.10;99.90;;;;;;5023243;28;20692;-57
2024/03/16 07:22:28;;;;;;;1.40;0.90;;;14.00;99.90;;;;;;5026229;28;20205;-55
2024/03/16 07:24:55;;;;;;;2.13;1.50;;;13.90;99.90;;;;;;5034545;28;20201;-56
2024/03/16 07:27:22;;;;;;;2.87;2.17;;;13.90;99.90;;;;;;5032347;28;20766;-53
2024/03/16 07:29:49;;;;;;;2.53;0.73;;;13.80;99.90;;;;;;5025876;28;20215;-53
2024/03/16 07:32:16;;;;;;;1.50;1.10;;;13.90;99.90;;;;;;5024561;28;20226;-54
2024/03/16 07:34:42;;;;;;;7.63;5.63;;;14.10;99.90;;;;;;5034163;28;20557;-53
2024/03/16 07:37:09;;;;;;;4.93;2.80;;;14.20;99.90;;;;;;5033491;28;20279;-53
2024/03/16 07:39:36;;;;;;;3.50;2.27;;;14.30;99.90;;;;;;5023725;28;20233;-53
2024/03/16 07:42:03;;;;;;;2.23;1.27;;;14.40;99.90;;;;;;5022772;28;20206;-53
2024/03/16 07:44:31;;;;;;;1.40;0.87;;;14.40;99.90;;;;;;5022627;28;20661;-56
2024/03/16 07:46:58;;;;;;;3.20;1.53;;;14.40;99.90;;;;;;5022687;28;20688;-54
2024/03/16 07:49:24;;;;;;;3.57;1.40;;;14.50;99.90;;;;;;5025127;28;20206;-53
2024/03/16 07:51:51;;;;;;;1.77;0.90;;;14.70;99.90;;;;;;5033820;28;20217;-52
2024/03/16 07:54:18;;;;;;;1.63;0.80;;;14.70;99.90;;;;;;5032093;28;20596;-54
2024/03/16 07:56:45;;;;;;;1.43;0.60;;;14.70;99.90;;;;;;5024275;28;20293;-54
2024/03/16 07:59:12;;;;;;;1.77;0.50;;;14.70;99.90;;;;;;5023181;28;20202;-53
2024/03/16 08:01:39;;;;;;;1.80;0.67;;;14.70;99.90;;;;;;5033775;28;20285;-53
2024/03/16 08:04:06;;;;;;;1.90;0.70;;;14.70;99.90;;;;;;5033651;28;20554;-54
2024/03/16 08:06:33;;;;;;;1.67;0.70;;;14.60;99.90;;;;;;5022644;28;20206;-53
2024/03/16 08:09:00;;;;;;;1.57;0.80;;;14.60;99.90;;;;;;5022304;28;20230;-53
2024/03/16 08:11:27;;;;;;;2.13;0.80;;;14.60;99.90;;;;;;5025082;28;20219;-54
2024/03/16 08:13:54;;;;;;;2.77;0.80;;;14.70;99.90;;;;;;5033899;28;20205;-55
2024/03/16 08:16:21;;;;;;;3.00;1.83;;;14.80;99.90;;;;;;5031365;28;20201;-55
2024/03/16 08:18:49;;;;;;;2.93;0.67;;;14.80;99.90;;;;;;5024391;28;20300;-55
2024/03/16 08:21:16;;;;;;;2.00;0.80;;;15.00;99.90;;;;;;5023755;28;20229;-56
2024/03/16 08:23:43;;;;;;;1.00;0.50;;;15.20;99.90;;;;;;5033874;28;20208;-56
2024/03/16 08:26:10;;;;;;;1.03;0.50;;;15.30;99.90;;;;;;5033042;28;20259;-55
2024/03/16 08:28:37;;;;;;;1.83;0.90;;;15.40;99.90;;;;;;5023900;28;20773;-55
2024/03/16 08:31:04;;;;;;;2.70;0.63;;;15.50;99.90;;;;;;5026484;28;20289;-54
2024/03/16 08:33:32;;;;;;;1.27;0.70;;;15.50;99.90;;;;;;5026227;28;20202;-54
2024/03/16 08:35:59;;;;;;;2.63;0.80;;;15.40;99.90;;;;;;5026425;28;20278;-56
2024/03/16 08:38:25;;;;;;;2.67;0.70;;;15.50;99.90;;;;;;5028920;28;20229;-55
2024/03/16 08:40:54;;;;;;;1.73;0.87;;;15.50;99.90;;;;;;5037530;28;20686;-55
2024/03/16 08:43:21;;;;;;;2.60;1.08;;;15.60;99.90;;;;;;5036230;28;20240;-58
2024/03/16 08:45:48;;;;;;;2.47;0.73;;;15.80;99.90;;;;;;5027997;28;20260;-55
2024/03/16 08:48:14;;;;;;;3.40;0.83;;;16.00;99.90;;;;;;5027073;28;20229;-56
2024/03/16 08:50:41;;;;;;;1.20;0.53;;;16.30;99.90;;;;;;5037439;28;20664;-57
2024/03/16 08:53:08;;;;;;;1.17;0.55;;;16.60;99.90;;;;;;5037123;28;20222;-56
2024/03/16 08:55:35;;;;;;;2.50;1.00;;;16.70;99.90;;;;;;5025863;28;20206;-59
2024/03/16 08:58:02;;;;;;;2.88;0.85;;;16.80;99.90;;;;;;5025883;28;20226;-56
2024/03/16 09:00:29;;;;;;;3.72;0.85;;;16.90;99.90;;;;;;5028519;28;20198;-56
2024/03/16 09:02:56;;;;;;;2.28;1.20;;;16.80;99.90;;;;;;5037557;28;20198;-54
2024/03/16 09:05:23;;;;;;;1.17;0.88;;;16.70;99.90;;;;;;5034726;28;20574;-55
2024/03/16 09:07:50;;;;;;;3.67;0.80;;;16.70;99.90;;;;;;5027922;28;20279;-55
2024/03/16 09:10:17;;;;;;;1.70;0.70;;;17.00;99.90;;;;;;5026627;28;20221;-56
2024/03/16 09:12:46;;;;;;;3.13;1.20;;;17.30;99.90;;;;;;5037064;28;20222;-57
2024/03/16 09:15:13;;;;;;;2.22;1.13;;;17.50;99.90;;;;;;5036235;28;20229;-56
2024/03/16 09:17:40;;;;;;;1.05;0.60;;;17.50;99.90;;;;;;5026445;28;20218;-56
2024/03/16 09:20:07;;;;;;;1.58;0.70;;;17.20;99.90;;;;;;5025563;28;20233;-56
2024/03/16 09:22:34;;;;;;;1.55;0.90;;;17.10;99.90;;;;;;5033270;28;20664;-56
2024/03/16 09:25:05;;;;;;;2.00;0.75;;;17.20;99.90;;;;;;5028920;28;20199;-56
2024/03/16 09:27:32;;;;;;;4.07;0.90;;;17.30;99.90;;;;;;5026651;28;20765;-64
2024/03/16 09:29:59;;;;;;;1.70;0.60;;;17.70;99.90;;;;;;5028670;28;20210;-58
2024/03/16 09:32:26;;;;;;;1.20;0.90;;;18.00;99.90;;;;;;5026249;28;20221;-58
2024/03/16 09:34:53;;;;;;;2.35;0.85;;;18.10;99.90;;;;;;5036581;28;20198;-56
2024/03/16 09:37:20;;;;;;;2.97;0.85;;;18.20;99.90;;;;;;5034548;28;20221;-57
2024/03/16 09:39:47;;;;;;;1.42;0.60;;;18.60;99.90;;;;;;5026408;28;20244;-59
2024/03/16 09:42:14;;;;;;;3.60;1.58;;;18.70;99.90;;;;;;5025329;28;20605;-55
2024/03/16 09:44:41;;;;;;;1.63;0.70;;;18.50;99.90;;;;;;5036361;28;20221;-57
2024/03/16 09:47:08;;;;;;;1.45;0.65;;;18.20;99.90;;;;;;5036329;28;20551;-58
2024/03/16 09:49:35;;;;;;;1.98;0.77;;;18.10;99.90;;;;;;5028189;28;20210;-59
2024/03/16 09:52:03;;;;;;;1.10;0.68;;;18.20;99.90;;;;;;5036252;28;20317;-59
2024/03/16 09:54:31;;;;;;;2.53;0.70;;;18.20;99.90;;;;;;5032998;28;20668;-54
2024/03/16 09:56:58;;;;;;;1.80;0.50;;;18.20;99.90;;;;;;5027614;28;20256;-54
2024/03/16 09:59:25;;;;;;;1.35;0.63;;;18.20;99.90;;;;;;5063354;22;20270;-58
2024/03/16 10:01:52;;;;;;;1.73;0.63;;;18.10;99.90;;;;;;5027436;28;20646;-60
2024/03/16 10:04:19;;;;;;;0.68;0.52;;;17.90;99.90;;;;;;5026244;28;20735;-58
2024/03/16 10:06:46;;;;;;;0.98;0.50;;;17.80;99.90;;;;;;5024349;28;20213;-60
2024/03/16 10:09:13;;;;;;;1.00;0.50;;;17.80;99.90;;;;;;5029194;28;20249;-60
2024/03/16 10:11:40;;;;;;;2.33;0.63;;;17.70;99.90;;;;;;5024399;28;20356;-60
2024/03/16 10:14:09;;;;;;;1.52;0.90;;;17.50;99.90;;;;;;5023599;28;20202;-60
2024/03/16 10:16:40;;;;;;;1.60;0.90;;;17.30;99.90;;;;;;5024246;28;20676;-61
2024/03/16 10:19:07;;;;;;;1.05;0.60;;;17.10;99.90;;;;;;5040308;28;20229;-60
2024/03/16 10:21:34;;;;;;;1.10;0.60;;;17.00;99.90;;;;;;5043630;28;20683;-61
2024/03/16 10:24:00;;;;;;;1.83;0.75;;;17.20;99.90;;;;;;5051841;28;20202;-59
2024/03/16 10:26:30;;;;;;;1.75;0.60;;;17.50;99.90;;;;;;5051925;28;20275;-59
2024/03/16 10:28:58;;;;;;;2.80;0.50;;;17.60;99.90;;;;;;5044617;28;20228;-57
2024/03/16 10:31:26;;;;;;;1.92;0.63;;;17.80;99.90;;;;;;5044043;28;20209;-57
2024/03/16 10:33:53;;;;;;;0.85;0.43;;;18.10;99.90;;;;;;5052263;28;20726;-57
2024/03/16 10:36:20;;;;;;;2.28;0.80;;;18.20;99.90;;;;;;5051384;28;20289;-60
2024/03/16 10:38:47;;;;;;;2.65;0.70;;;18.20;99.90;;;;;;5043412;28;20240;-60
2024/03/16 10:41:16;;;;;;;4.78;0.70;;;18.30;99.90;;;;;;5043852;28;20202;-59
2024/03/16 10:43:43;;;;;;;1.30;0.50;;;18.60;99.90;;;;;;5052256;28;20500;-59
2024/03/16 10:46:10;;;;;;;1.25;0.70;;;18.90;99.90;;;;;;5051803;28;20210;-59
2024/03/16 10:48:37;;;;;;;0.63;0.30;;;18.90;99.90;;;;;;5043750;28;20249;-61
2024/03/16 10:51:05;;;;;;;1.73;0.60;;;18.90;99.90;;;;;;5050549;28;20216;-58
2024/03/16 10:53:31;;;;;;;3.42;0.50;;;19.00;99.90;;;;;;5051666;28;20222;-60
2024/03/16 10:56:00;;;;;;;1.70;0.50;;;19.10;99.90;;;;;;5043297;28;20684;-60
2024/03/16 10:58:27;;;;;;;2.78;0.70;;;19.10;99.90;;;;;;5043409;28;20229;-61
2024/03/16 11:00:55;;;;;;;2.13;0.50;;;18.80;99.90;;;;;;5051639;28;20201;-60
2024/03/16 11:03:25;;;;;;;2.28;1.20;;;18.70;99.90;;;;;;5051266;28;20205;-61
2024/03/16 11:05:56;;;;;;;0.80;0.52;;;18.80;99.90;;;;;;5043421;28;20676;-59
2024/03/16 11:08:23;;;;;;;0.95;0.52;;;18.90;99.90;;;;;;5043815;28;20232;-60
2024/03/16 11:10:50;;;;;;;1.20;0.80;;;18.70;99.90;;;;;;5051498;28;20285;-61
2024/03/16 11:13:17;;;;;;;1.60;0.75;;;18.60;99.90;;;;;;5050670;28;20295;-60
2024/03/16 11:15:44;;;;;;;1.63;0.60;;;18.40;99.90;;;;;;5042689;28;20656;-60
2024/03/16 11:18:41;;;;;;;1.17;0.55;;;18.40;99.90;;;;;;5042872;28;20252;-60
2024/03/16 11:21:15;;;;;;;0.95;0.73;;;18.40;99.90;;;;;;5047032;28;20296;-60
2024/03/16 11:23:42;;;;;;;1.27;0.65;;;18.50;99.90;;;;;;5036184;28;20232;-60
2024/03/16 11:26:32;;;;;;;0.90;0.52;;;18.70;99.90;;;;;;5041985;28;20581;-60
2024/03/16 11:29:09;;;;;;;3.97;0.60;;;18.70;99.90;;;;;;5045783;28;20244;-60
2024/03/16 11:31:36;;;;;;;1.83;0.80;;;18.40;99.90;;;;;;5042984;28;20255;-60
2024/03/16 11:34:04;;;;;;;2.70;1.05;;;18.00;99.90;;;;;;5050493;28;20228;-60
2024/03/16 11:36:32;;;;;;;1.42;0.60;;;17.90;99.90;;;;;;5050289;28;20292;-60
2024/03/16 11:39:07;;;;;;;2.78;1.58;;;17.90;99.90;;;;;;5058646;28;20240;-60
2024/03/16 11:41:32;;;;;;;7.75;1.75;;;18.00;99.90;;;;;;5043677;28;20243;-60
2024/03/16 11:43:59;;;;;;;2.15;0.40;;;18.30;99.90;;;;;;5050828;28;20195;-60
2024/03/16 11:46:25;;;;;;;2.55;1.17;;;18.60;99.90;;;;;;5050129;28;20209;-60
2024/03/16 11:48:52;;;;;;;1.05;0.50;;;18.90;99.90;;;;;;5042116;28;20232;-60
2024/03/16 11:51:18;;;;;;;2.25;0.90;;;19.10;99.90;;;;;;5041623;28;20209;-60
2024/03/16 11:53:44;;;;;;;1.50;0.65;;;19.10;99.90;;;;;;5050426;28;20593;-60
2024/03/16 11:56:11;;;;;;;1.98;0.50;;;19.10;99.90;;;;;;5049629;28;20201;-59
2024/03/16 11:58:39;;;;;;;0.65;0.47;;;19.30;99.90;;;;;;5041864;28;20225;-60
2024/03/16 12:01:05;;;;;;;2.70;1.05;;;19.40;99.90;;;;;;5050507;28;20198;-59
2024/03/16 12:03:32;;;;;;;1.00;0.82;;;19.10;99.90;;;;;;5049497;28;20224;-64
2024/03/16 12:05:58;;;;;;;3.88;0.88;;;19.10;99.90;;;;;;5041900;28;20201;-61
2024/03/16 12:08:24;;;;;;;2.47;1.10;;;19.30;99.90;;;;;;5041966;28;20306;-61
2024/03/16 12:10:50;;;;;;;0.75;0.60;;;19.20;99.90;;;;;;5050411;28;20259;-61
2024/03/16 12:13:17;;;;;;;1.20;0.30;;;19.00;99.90;;;;;;5049935;28;20644;-60
2024/03/16 12:15:43;;;;;;;1.95;0.80;;;18.60;99.90;;;;;;5041752;28;20202;-60
2024/03/16 12:18:10;;;;;;;3.40;1.00;;;18.50;99.90;;;;;;5041471;28;20753;-61
2024/03/16 12:20:37;;;;;;;0.80;0.45;;;18.50;99.90;;;;;;5041458;28;20201;-61
2024/03/16 12:23:04;;;;;;;0.73;0.60;;;18.80;99.90;;;;;;5050140;28;20202;-61
2024/03/16 12:25:31;;;;;;;1.35;0.30;;;18.70;99.90;;;;;;5049640;28;20679;-61
2024/03/16 12:28:02;;;;;;;4.88;0.55;;;18.80;99.90;;;;;;5042200;28;20228;-61
2024/03/16 12:30:29;;;;;;;2.10;0.60;;;18.90;99.90;;;;;;5042571;28;20205;-61
2024/03/16 12:32:57;;;;;;;1.08;0.70;;;19.10;99.90;;;;;;5049951;28;20758;-61
2024/03/16 12:35:23;;;;;;;2.25;1.63;;;19.30;99.90;;;;;;5049990;28;20202;-61
2024/03/16 12:37:49;;;;;;;1.35;0.88;;;19.50;99.90;;;;;;5041835;28;20221;-61
2024/03/16 12:40:15;;;;;;;3.83;1.30;;;19.50;99.90;;;;;;5042095;28;20629;-60
2024/03/16 12:42:42;;;;;;;1.65;1.40;;;19.30;99.90;;;;;;5050150;28;20197;-62
2024/03/16 12:45:08;;;;;;;1.35;0.90;;;19.10;99.90;;;;;;5050266;28;20205;-60
2024/03/16 12:47:35;;;;;;;0.70;0.47;;;19.00;99.90;;;;;;5049732;28;20206;-60
2024/03/16 12:50:00;;;;;;;1.73;0.43;;;18.90;99.90;;;;;;5042168;28;20201;-60